Time;durP1;ratioP1;P1;durP2;ratioP2;P2;SDS_P1;SDS_P2;PMS_P1;PMS_P2;Temp;Humidity;BMP_temperature;BMP_pressure;BME280_temperature;BME280_humidity;BME280_pressure;Samples;Min_cycle;Max_cycle;Signal;HPM_P1;HPM_P2
2022/07/03 00:01:16;;;;;;;;;;;14.70;99.90;;;;;;5074081;28;19909;-74
2022/07/03 00:03:42;;;;;;;;;;;14.60;99.90;;;;;;5073328;28;20739;-74
2022/07/03 00:06:07;;;;;;;;;;;14.50;99.90;;;;;;5074016;28;19905;-75
2022/07/03 00:08:33;;;;;;;;;;;14.50;99.90;;;;;;5073214;28;19910;-75
2022/07/03 00:10:59;;;;;;;;;;;14.30;99.90;;;;;;5055910;28;19955;-76
2022/07/03 00:13:24;;;;;;;;;;;14.30;99.90;;;;;;5073580;28;19931;-76
2022/07/03 00:15:50;;;;;;;;;;;14.20;99.90;;;;;;5073816;28;19905;-74
2022/07/03 00:18:15;;;;;;;;;;;14.10;99.90;;;;;;5074242;28;19931;-74
2022/07/03 00:20:45;;;;;;;;;;;14.10;99.90;;;;;;5073006;28;19904;-74
2022/07/03 00:23:13;;;;;;;;;;;14.10;99.90;;;;;;5073031;28;19904;-75
2022/07/03 00:25:39;;;;;;;;;;;14.10;99.90;;;;;;5072878;28;19905;-75
2022/07/03 00:28:06;;;;;;;;;;;14.00;99.90;;;;;;5073502;28;19927;-74
2022/07/03 00:30:31;;;;;;;;;;;14.00;99.90;;;;;;5073513;28;19908;-75
2022/07/03 00:32:57;;;;;;;;;;;14.00;99.90;;;;;;5074384;28;20424;-73
2022/07/03 00:35:23;;;;;;;;;;;14.00;99.90;;;;;;5055958;28;19910;-74
2022/07/03 00:37:49;;;;;;;;;;;14.00;99.90;;;;;;5073092;28;19916;-74
2022/07/03 00:40:14;;;;;;;;;;;14.00;99.90;;;;;;5074055;28;20239;-74
2022/07/03 00:42:40;;;;;;;;;;;14.10;99.90;;;;;;5072963;28;19909;-73
2022/07/03 00:45:07;;;;;;;;;;;14.00;99.90;;;;;;5073822;28;19952;-73
2022/07/03 00:47:34;;;;;;;;;;;14.00;99.90;;;;;;5073065;28;19911;-74
2022/07/03 00:50:05;;;;;;;;;;;14.00;99.90;;;;;;5073144;28;19916;-74
2022/07/03 00:52:30;;;;;;;;;;;14.00;99.90;;;;;;5055272;28;19915;-74
2022/07/03 00:54:57;;;;;;;;;;;14.00;99.90;;;;;;5073917;28;19908;-73
2022/07/03 00:57:24;;;;;;;;;;;13.90;99.90;;;;;;5073684;28;19904;-73
2022/07/03 00:59:50;;;;;;;;;;;14.00;99.90;;;;;;5073124;28;19904;-74
2022/07/03 01:02:34;;;;;;;;;;;14.00;99.90;;;;;;5073415;28;19927;-73
2022/07/03 01:05:09;;;;;;;;;;;14.00;99.90;;;;;;5073390;28;19908;-73
2022/07/03 01:07:44;;;;;;;;;;;14.00;99.90;;;;;;5072922;28;19954;-74
2022/07/03 01:10:10;;;;;;;;;;;14.00;99.90;;;;;;5073142;28;20350;-73
2022/07/03 01:12:35;;;;;;;;;;;14.10;99.90;;;;;;5072440;28;19909;-73
2022/07/03 01:15:01;;;;;;;;;;;14.10;99.90;;;;;;5073164;28;19904;-73
2022/07/03 01:17:33;;;;;;;;;;;14.10;99.90;;;;;;5073197;28;19916;-73
2022/07/03 01:20:04;;;;;;;;;;;14.20;99.90;;;;;;5072879;28;19916;-72
2022/07/03 01:22:48;;;;;;;;;;;14.10;99.90;;;;;;5072411;28;20043;-73
2022/07/03 01:25:24;;;;;;;;;;;14.10;99.90;;;;;;5073131;28;19904;-72
2022/07/03 01:28:08;;;;;;;;;;;14.10;99.90;;;;;;5072328;28;19905;-72
2022/07/03 01:30:47;;;;;;;;;;;14.10;99.90;;;;;;5072260;28;19915;-72
2022/07/03 01:33:17;;;;;;;;;;;14.10;99.90;;;;;;5072840;28;20271;-72
2022/07/03 01:36:06;;;;;;;;;;;14.00;99.90;;;;;;5072443;28;19912;-72
2022/07/03 01:38:33;;;;;;;;;;;14.00;99.90;;;;;;5060967;28;19923;-73
2022/07/03 01:41:00;;;;;;;;;;;14.00;99.90;;;;;;5054801;28;19946;-72
2022/07/03 01:43:30;;;;;;;;;;;14.00;99.90;;;;;;5072563;28;19904;-72
2022/07/03 01:45:57;;;;;;;;;;;14.00;99.90;;;;;;5073110;28;19905;-72
2022/07/03 01:48:23;;;;;;;;;;;13.90;99.90;;;;;;5072645;28;20007;-72
2022/07/03 01:50:49;;;;;;;;;;;13.90;99.90;;;;;;5071973;28;20784;-72
2022/07/03 01:53:16;;;;;;;;;;;13.80;99.90;;;;;;5072645;28;19908;-72
2022/07/03 01:55:41;;;;;;;;;;;13.70;99.90;;;;;;5072006;28;19965;-73
2022/07/03 01:58:07;;;;;;;;;;;13.70;99.90;;;;;;5072813;28;20380;-72
2022/07/03 02:00:50;;;;;;;;;;;13.60;99.90;;;;;;5072039;28;20000;-73
2022/07/03 02:03:42;;;;;;;;;;;13.50;99.90;;;;;;5072897;28;19904;-72
2022/07/03 02:06:24;;;;;;;;;;;13.40;99.90;;;;;;5069028;28;19904;-72
2022/07/03 02:08:53;;;;;;;;;;;13.40;99.90;;;;;;5072153;28;19908;-72
2022/07/03 02:11:19;;;;;;;;;;;13.40;99.90;;;;;;5072646;28;19909;-73
2022/07/03 02:13:55;;;;;;;;;;;13.30;99.90;;;;;;5072119;28;19915;-73
2022/07/03 02:16:22;;;;;;;;;;;13.30;99.90;;;;;;5073780;28;19912;-72
2022/07/03 02:18:54;;;;;;;;;;;13.30;99.90;;;;;;5075666;28;19966;-72
2022/07/03 02:21:20;;;;;;;;;;;13.30;99.90;;;;;;5076487;28;20385;-73
2022/07/03 02:23:51;;;;;;;;;;;13.30;99.90;;;;;;5075814;28;19909;-73
2022/07/03 02:26:21;;;;;;;;;;;13.30;99.90;;;;;;5076346;28;20346;-72
2022/07/03 02:28:46;;;;;;;;;;;13.30;99.90;;;;;;5058059;28;19908;-73
2022/07/03 02:31:15;;;;;;;;;;;13.30;99.90;;;;;;5076463;28;20266;-72
2022/07/03 02:33:41;;;;;;;;;;;13.30;99.90;;;;;;5075797;28;19908;-72
2022/07/03 02:36:09;;;;;;;;;;;13.30;99.90;;;;;;5076238;28;19905;-72
2022/07/03 02:38:35;;;;;;;;;;;13.30;99.90;;;;;;5075276;28;19939;-74
2022/07/03 02:41:08;;;;;;;;;;;13.30;99.90;;;;;;5076304;28;20347;-73
2022/07/03 02:43:41;;;;;;;;;;;13.20;99.90;;;;;;5075811;28;19905;-75
2022/07/03 02:49:19;;;;;;;;;;;13.10;99.90;;;;;;5075916;28;19911;-73
2022/07/03 02:51:57;;;;;;;;;;;13.10;99.90;;;;;;5075467;28;19951;-74
2022/07/03 02:54:24;;;;;;;;;;;13.10;99.90;;;;;;5076099;28;19961;-73
2022/07/03 02:57:06;;;;;;;;;;;13.00;99.90;;;;;;5075357;28;19904;-73
2022/07/03 02:59:50;;;;;;;;;;;13.00;99.90;;;;;;5076171;28;19905;-73
2022/07/03 03:02:21;;;;;;;;;;;13.00;99.90;;;;;;5075901;28;19957;-73
2022/07/03 03:05:22;;;;;;;;;;;13.00;99.90;;;;;;5075255;28;19955;-73
2022/07/03 03:07:54;;;;;;;;;;;12.90;99.90;;;;;;4993832;28;19905;-74
2022/07/03 03:10:20;;;;;;;;;;;12.90;99.90;;;;;;5061439;28;19954;-74
2022/07/03 03:12:57;;;;;;;;;;;12.90;99.90;;;;;;5075151;28;19951;-73
2022/07/03 03:15:26;;;;;;;;;;;12.90;99.90;;;;;;5075478;28;19911;-73
2022/07/03 03:17:53;;;;;;;;;;;12.90;99.90;;;;;;5074822;28;19904;-74
2022/07/03 03:20:22;;;;;;;;;;;12.90;99.90;;;;;;5075147;28;19911;-73
2022/07/03 03:23:05;;;;;;;;;;;12.80;99.90;;;;;;5074808;28;19906;-73
2022/07/03 03:25:31;;;;;;;;;;;12.90;99.90;;;;;;5057466;28;19905;-73
2022/07/03 03:27:58;;;;;;;;;;;12.90;99.90;;;;;;5056907;28;20023;-73
2022/07/03 03:30:24;;;;;;;;;;;12.80;99.90;;;;;;5075169;28;19908;-73
2022/07/03 03:32:49;;;;;;;;;;;12.80;99.90;;;;;;5074672;28;19908;-74
2022/07/03 03:35:15;;;;;;;;;;;12.90;99.90;;;;;;5074986;28;19905;-73
2022/07/03 03:37:41;;;;;;;;;;;12.90;99.90;;;;;;5074545;28;19916;-74
2022/07/03 03:40:07;;;;;;;;;;;12.90;99.90;;;;;;5075250;28;19993;-74
2022/07/03 03:42:32;;;;;;;;;;;12.90;99.90;;;;;;5075195;28;19905;-74
2022/07/03 03:44:58;;;;;;;;;;;12.90;99.90;;;;;;5074628;28;19904;-74
2022/07/03 03:47:24;;;;;;;;;;;13.00;99.90;;;;;;5075238;28;20004;-73
2022/07/03 03:49:49;;;;;;;;;;;13.00;99.90;;;;;;5074207;28;20355;-73
2022/07/03 03:52:15;;;;;;;;;;;13.00;99.90;;;;;;5057212;28;19958;-73
2022/07/03 03:54:41;;;;;;;;;;;13.10;99.90;;;;;;5039645;28;19911;-74
2022/07/03 03:57:20;;;;;;;;;;;13.00;99.90;;;;;;5074581;28;19909;-73
2022/07/03 03:59:45;;;;;;;;;;;13.00;99.90;;;;;;5074288;28;20367;-74
2022/07/03 04:02:11;;;;;;;;;;;13.10;99.90;;;;;;5074773;28;19993;-74
2022/07/03 04:04:36;;;;;;;;;;;13.10;99.90;;;;;;5074831;28;20042;-74
2022/07/03 04:07:02;;;;;;;;;;;13.10;99.90;;;;;;5073946;28;19908;-74
2022/07/03 04:09:27;;;;;;;;;;;13.10;99.90;;;;;;5074631;28;19904;-74
2022/07/03 04:11:53;;;;;;;;;;;13.10;99.90;;;;;;5074024;28;19920;-74
2022/07/03 04:14:19;;;;;;;;;;;13.10;99.90;;;;;;5074640;28;19904;-73
2022/07/03 04:16:44;;;;;;;;;;;13.00;99.90;;;;;;5073762;28;19943;-73
2022/07/03 04:19:10;;;;;;;;;;;13.00;99.90;;;;;;5074769;28;20309;-73
2022/07/03 04:21:35;;;;;;;;;;;13.00;99.90;;;;;;5074437;28;19911;-73
2022/07/03 04:24:01;;;;;;;;;;;12.90;99.90;;;;;;5073719;28;20365;-73
2022/07/03 04:26:26;;;;;;;;;;;12.90;99.90;;;;;;5074336;28;19912;-73
2022/07/03 04:28:52;;;;;;;;;;;12.90;99.90;;;;;;5055318;28;20286;-74
2022/07/03 04:31:18;;;;;;;;;;;12.90;99.90;;;;;;5074335;28;19962;-73
2022/07/03 04:33:43;;;;;;;;;;;12.80;99.90;;;;;;5073587;28;20002;-74
2022/07/03 04:36:09;;;;;;;;;;;12.80;99.90;;;;;;5074087;28;20339;-73
2022/07/03 04:38:34;;;;;;;;;;;12.90;99.90;;;;;;5073270;28;19916;-73
2022/07/03 04:41:00;;;;;;;;;;;12.90;99.90;;;;;;5073258;28;20385;-74
2022/07/03 04:43:25;;;;;;;;;;;12.90;99.90;;;;;;5073822;28;19906;-73
2022/07/03 04:45:51;;;;;;;;;;;13.00;99.90;;;;;;5073335;28;19906;-74
2022/07/03 04:48:16;;;;;;;;;;;13.00;99.90;;;;;;5073849;28;20038;-73
2022/07/03 04:50:42;;;;;;;;;;;13.00;99.90;;;;;;5073312;28;19908;-75
2022/07/03 04:53:08;;;;;;;;;;;13.10;99.90;;;;;;5073475;28;19915;-74
2022/07/03 04:55:33;;;;;;;;;;;13.10;99.90;;;;;;5073650;28;19910;-74
2022/07/03 04:57:59;;;;;;;;;;;13.20;99.90;;;;;;5072839;28;20416;-73
2022/07/03 05:00:25;;;;;;;;;;;13.30;99.90;;;;;;5073674;28;20002;-73
2022/07/03 05:02:50;;;;;;;;;;;13.40;99.90;;;;;;5073016;28;20303;-74
2022/07/03 05:05:16;;;;;;;;;;;13.40;99.90;;;;;;5073443;28;19962;-73
2022/07/03 05:07:41;;;;;;;;;;;13.40;99.90;;;;;;5073345;28;19905;-75
2022/07/03 05:10:07;;;;;;;;;;;13.30;99.90;;;;;;5073086;28;19909;-74
2022/07/03 05:12:33;;;;;;;;;;;13.30;99.90;;;;;;5073383;28;19914;-73
2022/07/03 05:14:58;;;;;;;;;;;13.30;99.90;;;;;;5072746;28;19911;-74
2022/07/03 05:17:24;;;;;;;;;;;13.40;99.90;;;;;;5073440;28;20371;-73
2022/07/03 05:20:23;;;;;;;;;;;13.50;99.90;;;;;;5072726;28;19904;-74
2022/07/03 05:22:38;;;;;;;;;;;13.60;99.90;;;;;;5072738;28;19935;-74
2022/07/03 05:25:04;;;;;;;;;;;13.70;99.90;;;;;;5072216;28;20089;-74
2022/07/03 05:27:29;;;;;;;;;;;13.80;99.90;;;;;;5073492;28;19904;-74
2022/07/03 05:29:55;;;;;;;;;;;14.00;99.90;;;;;;5072271;28;19961;-74
2022/07/03 05:32:20;;;;;;;;;;;14.10;99.90;;;;;;5072867;28;19912;-71
2022/07/03 05:34:46;;;;;;;;;;;14.10;99.90;;;;;;5072578;28;19916;-73
2022/07/03 05:37:11;;;;;;;;;;;14.20;99.90;;;;;;5072807;28;20350;-72
2022/07/03 05:39:37;;;;;;;;;;;14.20;99.90;;;;;;5072771;28;19923;-72
2022/07/03 05:42:04;;;;;;;;;;;14.30;99.90;;;;;;5072482;28;19955;-72
2022/07/03 05:44:29;;;;;;;;;;;14.40;99.90;;;;;;5073034;28;19904;-73
2022/07/03 05:46:55;;;;;;;;;;;14.40;99.90;;;;;;5054458;28;19904;-74
2022/07/03 05:49:21;;;;;;;;;;;14.60;99.90;;;;;;5072815;28;19943;-74
2022/07/03 05:51:46;;;;;;;;;;;14.70;99.90;;;;;;5071357;28;20355;-75
2022/07/03 05:54:12;;;;;;;;;;;14.80;99.90;;;;;;5073276;28;19908;-74
2022/07/03 05:56:37;;;;;;;;;;;14.80;99.90;;;;;;5072449;28;19904;-74
2022/07/03 05:59:03;;;;;;;;;;;14.70;99.90;;;;;;5072225;28;19904;-74
2022/07/03 06:01:29;;;;;;;;;;;14.70;99.90;;;;;;5072836;28;19904;-74
2022/07/03 06:03:54;;;;;;;;;;;14.70;99.90;;;;;;5071808;28;19911;-74
2022/07/03 06:06:20;;;;;;;;;;;14.70;99.90;;;;;;5072831;28;20346;-74
2022/07/03 06:08:45;;;;;;;;;;;14.70;99.90;;;;;;5072535;28;19974;-75
2022/07/03 06:11:11;;;;;;;;;;;14.70;99.90;;;;;;5072365;28;19912;-74
2022/07/03 06:13:36;;;;;;;;;;;14.60;99.90;;;;;;5072436;28;19913;-72
2022/07/03 06:16:02;;;;;;;;;;;14.50;99.90;;;;;;5071995;28;19908;-72
2022/07/03 06:18:28;;;;;;;;;;;14.50;99.90;;;;;;5072793;28;19905;-72
2022/07/03 06:20:53;;;;;;;;;;;14.50;99.90;;;;;;5071979;28;20329;-74
2022/07/03 06:23:19;;;;;;;;;;;14.30;99.90;;;;;;5072376;28;19904;-74
2022/07/03 06:25:44;;;;;;;;;;;14.30;99.90;;;;;;5072130;28;20278;-72
2022/07/03 06:28:10;;;;;;;;;;;14.30;99.90;;;;;;5071731;28;19946;-73
2022/07/03 06:30:35;;;;;;;;;;;14.30;99.90;;;;;;5072535;28;19915;-73
2022/07/03 06:33:01;;;;;;;;;;;14.30;99.90;;;;;;5071969;28;19951;-73
2022/07/03 06:35:26;;;;;;;;;;;14.30;99.90;;;;;;5072579;28;19908;-73
2022/07/03 06:37:52;;;;;;;;;;;14.40;99.90;;;;;;5071889;28;20403;-73
2022/07/03 06:40:17;;;;;;;;;;;14.60;99.90;;;;;;5072361;28;19905;-73
2022/07/03 06:42:43;;;;;;;;;;;14.80;99.90;;;;;;5072783;28;19911;-73
2022/07/03 06:45:09;;;;;;;;;;;14.90;99.90;;;;;;5071829;28;19900;-73
2022/07/03 06:47:38;;;;;;;;;;;15.00;99.90;;;;;;5072315;28;20335;-74
2022/07/03 06:50:04;;;;;;;;;;;14.80;99.90;;;;;;5071532;28;19916;-73
2022/07/03 06:52:30;;;;;;;;;;;15.10;99.90;;;;;;5071969;28;19908;-74
2022/07/03 06:54:55;;;;;;;;;;;15.10;99.90;;;;;;5071916;28;20335;-74
2022/07/03 06:57:21;;;;;;;;;;;15.20;99.90;;;;;;5072158;28;19912;-73
2022/07/03 06:59:48;;;;;;;;;;;15.30;99.90;;;;;;5072238;28;19909;-73
2022/07/03 07:02:13;;;;;;;;;;;15.40;99.90;;;;;;5072759;28;19950;-73
2022/07/03 07:04:39;;;;;;;;;;;15.40;99.90;;;;;;5075757;28;19952;-73
2022/07/03 07:07:04;;;;;;;;;;;15.40;99.90;;;;;;5075226;28;20362;-73
2022/07/03 07:09:30;;;;;;;;;;;15.40;99.90;;;;;;5075693;28;20378;-73
2022/07/03 07:11:56;;;;;;;;;;;15.40;99.90;;;;;;5074814;28;19908;-74
2022/07/03 07:14:21;;;;;;;;;;;15.30;99.90;;;;;;5075617;28;19912;-73
2022/07/03 07:16:47;;;;;;;;;;;15.30;99.90;;;;;;5075591;28;20335;-73
2022/07/03 07:19:12;;;;;;;;;;;15.30;99.90;;;;;;5074926;28;19999;-74
2022/07/03 07:21:38;;;;;;;;;;;15.30;99.90;;;;;;5075403;28;20365;-73
2022/07/03 07:24:03;;;;;;;;;;;15.30;99.90;;;;;;5074825;28;19904;-73
2022/07/03 07:26:29;;;;;;;;;;;15.40;99.90;;;;;;5075729;28;20105;-73
2022/07/03 07:28:55;;;;;;;;;;;15.50;99.90;;;;;;5074803;28;19936;-74
2022/07/03 07:31:20;;;;;;;;;;;15.40;99.90;;;;;;5075016;28;20340;-73
2022/07/03 07:33:46;;;;;;;;;;;15.40;99.90;;;;;;5074958;28;20018;-73
2022/07/03 07:36:11;;;;;;;;;;;15.40;99.90;;;;;;5074479;28;19900;-74
2022/07/03 07:38:37;;;;;;;;;;;15.50;99.90;;;;;;5075099;28;19916;-74
2022/07/03 07:41:02;;;;;;;;;;;15.50;99.90;;;;;;5074616;28;20339;-74
2022/07/03 07:43:28;;;;;;;;;;;15.60;99.90;;;;;;5075251;28;19905;-74
2022/07/03 07:45:53;;;;;;;;;;;15.70;99.90;;;;;;5074290;28;20347;-76
2022/07/03 07:48:19;;;;;;;;;;;15.80;99.90;;;;;;5057075;28;19904;-74
2022/07/03 07:50:45;;;;;;;;;;;15.90;99.90;;;;;;5074990;28;19912;-74
2022/07/03 07:53:10;;;;;;;;;;;15.80;99.90;;;;;;5074273;28;20278;-75
2022/07/03 07:55:36;;;;;;;;;;;15.90;99.90;;;;;;5074912;28;20354;-75
2022/07/03 07:58:01;;;;;;;;;;;15.90;99.90;;;;;;5073979;28;19965;-75
2022/07/03 08:00:27;;;;;;;;;;;15.70;99.90;;;;;;5074766;28;19911;-75
2022/07/03 08:05:37;;;;;;;;;;;15.60;99.90;;;;;;5074621;28;20011;-75
2022/07/03 08:08:04;;;;;;;;;;;15.60;99.90;;;;;;5074110;28;19962;-76
2022/07/03 08:10:33;;;;;;;;;;;15.70;99.90;;;;;;5074567;28;19908;-74
2022/07/03 08:12:58;;;;;;;;;;;15.50;99.90;;;;;;5073967;28;20350;-75
2022/07/03 08:15:24;;;;;;;;;;;15.60;99.90;;;;;;5073901;28;19951;-75
2022/07/03 08:17:49;;;;;;;;;;;15.60;99.90;;;;;;5074787;28;20263;-75
2022/07/03 08:20:15;;;;;;;;;;;15.70;99.90;;;;;;5074125;28;19905;-75
2022/07/03 08:22:40;;;;;;;;;;;15.60;99.90;;;;;;5074311;28;19908;-74
2022/07/03 08:25:06;;;;;;;;;;;15.60;99.90;;;;;;5073578;28;20345;-74
2022/07/03 08:27:32;;;;;;;;;;;15.50;99.90;;;;;;5074266;28;19904;-74
2022/07/03 08:29:57;;;;;;;;;;;15.60;99.90;;;;;;5073577;28;19905;-74
2022/07/03 08:32:23;;;;;;;;;;;15.80;99.90;;;;;;5055796;28;19912;-74
2022/07/03 08:34:48;;;;;;;;;;;15.70;99.90;;;;;;5073932;28;19909;-74
2022/07/03 08:37:14;;;;;;;;;;;15.70;99.90;;;;;;5073385;28;20184;-73
2022/07/03 08:39:39;;;;;;;;;;;15.70;99.90;;;;;;5074087;28;19962;-74
2022/07/03 08:42:06;;;;;;;;;;;15.70;99.90;;;;;;5073410;28;19908;-75
2022/07/03 08:44:32;;;;;;;;;;;15.80;99.90;;;;;;5073858;28;20003;-74
2022/07/03 08:46:59;;;;;;;;;;;15.70;99.90;;;;;;5073097;28;19975;-76
2022/07/03 08:49:25;;;;;;;;;;;15.80;99.90;;;;;;5073363;28;19916;-74
2022/07/03 08:51:52;;;;;;;;;;;15.80;99.90;;;;;;5073071;28;20367;-74
2022/07/03 08:54:17;;;;;;;;;;;15.80;99.90;;;;;;5072844;28;20296;-74
2022/07/03 08:56:44;;;;;;;;;;;15.90;99.90;;;;;;5073570;28;20371;-74
2022/07/03 08:59:10;;;;;;;;;;;16.00;99.90;;;;;;5073028;28;20347;-74
2022/07/03 09:01:41;;;;;;;;;;;16.20;99.90;;;;;;5073424;28;20002;-74
2022/07/03 09:04:08;;;;;;;;;;;16.30;99.90;;;;;;5072916;28;19914;-74
2022/07/03 09:06:33;;;;;;;;;;;16.30;99.90;;;;;;5073327;28;19904;-75
2022/07/03 09:09:01;;;;;;;;;;;16.30;99.90;;;;;;5072673;28;19983;-75
2022/07/03 09:11:26;;;;;;;;;;;16.50;99.90;;;;;;5072898;28;20327;-74
2022/07/03 09:13:52;;;;;;;;;;;16.60;99.90;;;;;;5073129;28;19947;-73
2022/07/03 09:16:18;;;;;;;;;;;16.80;99.90;;;;;;5072691;28;19979;-74
2022/07/03 09:18:44;;;;;;;;;;;17.00;99.90;;;;;;5073284;28;19904;-74
2022/07/03 09:21:10;;;;;;;;;;;17.10;99.90;;;;;;5072127;28;19905;-74
2022/07/03 09:23:37;;;;;;;;;;;17.10;99.90;;;;;;5073040;28;19905;-74
2022/07/03 09:26:03;;;;;;;;;;;17.00;99.90;;;;;;5071773;28;19905;-75
2022/07/03 09:28:45;;;;;;;;;;;17.00;99.90;;;;;;5072971;28;19905;-75
2022/07/03 09:31:15;;;;;;;;;;;17.00;99.90;;;;;;5072406;28;19909;-75
2022/07/03 09:33:49;;;;;;;;;;;16.80;99.90;;;;;;5072923;28;19915;-74
2022/07/03 09:36:14;;;;;;;;;;;16.80;99.90;;;;;;5072083;28;19911;-75
2022/07/03 09:38:44;;;;;;;;;;;16.80;99.90;;;;;;5071681;28;19920;-74
2022/07/03 09:41:10;;;;;;;;;;;16.80;99.90;;;;;;5072304;28;19904;-74
2022/07/03 09:43:40;;;;;;;;;;;17.00;99.90;;;;;;5072939;28;19911;-74
2022/07/03 09:46:06;;;;;;;;;;;17.20;99.90;;;;;;5072375;28;19973;-74
2022/07/03 09:48:36;;;;;;;;;;;17.40;99.90;;;;;;5072677;28;19951;-74
2022/07/03 09:51:17;;;;;;;;;;;17.50;99.90;;;;;;5054122;28;19955;-75
2022/07/03 09:53:46;;;;;;;;;;;17.50;99.90;;;;;;5072485;28;19908;-75
2022/07/03 09:56:12;;;;;;;;;;;17.40;99.90;;;;;;5071977;28;19948;-74
2022/07/03 09:58:38;;;;;;;;;;;17.10;99.90;;;;;;5072716;28;19912;-74
2022/07/03 10:01:19;;;;;;;;;;;16.90;99.90;;;;;;5071714;28;20351;-75
2022/07/03 10:03:46;;;;;;;;;;;16.60;99.90;;;;;;5072615;28;19944;-74
2022/07/03 10:06:12;;;;;;;;;;;16.40;99.90;;;;;;5072004;28;19904;-74
2022/07/03 10:08:39;;;;;;;;;;;16.40;99.90;;;;;;5072573;28;19905;-74
2022/07/03 10:11:04;;;;;;;;;;;16.40;99.90;;;;;;5071940;28;20285;-75
2022/07/03 10:13:30;;;;;;;;;;;16.40;99.90;;;;;;5072302;28;20007;-74
2022/07/03 10:15:57;;;;;;;;;;;16.50;99.90;;;;;;5072494;28;19905;-74
2022/07/03 10:18:27;;;;;;;;;;;16.50;99.90;;;;;;5054021;28;19900;-74
2022/07/03 10:20:53;;;;;;;;;;;16.40;99.90;;;;;;5072194;28;20362;-74
2022/07/03 10:23:22;;;;;;;;;;;16.30;99.90;;;;;;5071589;28;19904;-74
2022/07/03 10:25:48;;;;;;;;;;;16.40;99.90;;;;;;5072215;28;19912;-74
2022/07/03 10:28:15;;;;;;;;;;;16.40;99.90;;;;;;5071803;28;19904;-74
2022/07/03 10:30:44;;;;;;;;;;;16.40;99.90;;;;;;5072189;28;20030;-74
2022/07/03 10:33:09;;;;;;;;;;;16.60;99.90;;;;;;5071829;28;19908;-74
2022/07/03 10:35:39;;;;;;;;;;;16.70;99.90;;;;;;5072351;28;19904;-74
2022/07/03 10:38:27;;;;;;;;;;;16.80;99.90;;;;;;5073744;28;19923;-75
2022/07/03 10:46:27;;;;;;;;;;;16.70;99.90;;;;;;5075548;28;19947;-74
2022/07/03 10:49:11;;;;;;;;;;;16.60;99.90;;;;;;5075971;28;19970;-74
2022/07/03 10:51:49;;;;;;;;;;;16.50;99.90;;;;;;5075852;28;19912;-74
2022/07/03 10:54:41;;;;;;;;;;;16.50;99.90;;;;;;5075562;28;20339;-74
2022/07/03 10:57:07;;;;;;;;;;;16.50;99.90;;;;;;5071023;28;19999;-75
2022/07/03 10:59:44;;;;;;;;;;;16.50;99.90;;;;;;5076238;28;19911;-74
2022/07/03 11:02:31;;;;;;;;;;;16.60;99.90;;;;;;5067905;28;19909;-74
2022/07/03 11:05:00;;;;;;;;;;;16.60;99.90;;;;;;5071935;28;19916;-74
2022/07/03 11:07:30;;;;;;;;;;;16.70;99.90;;;;;;5075054;28;19901;-74
2022/07/03 11:10:14;;;;;;;;;;;16.80;99.90;;;;;;5075615;28;19905;-74
2022/07/03 11:12:58;;;;;;;;;;;16.80;99.90;;;;;;5075334;28;19908;-74
2022/07/03 11:15:42;;;;;;;;;;;16.60;99.90;;;;;;5074824;28;19947;-74
2022/07/03 11:18:07;;;;;;;;;;;16.60;99.90;;;;;;5074852;28;19986;-75
2022/07/03 11:20:34;;;;;;;;;;;16.70;99.90;;;;;;5075129;28;20063;-74
2022/07/03 11:23:06;;;;;;;;;;;16.70;99.90;;;;;;5074613;28;19916;-74
2022/07/03 11:25:38;;;;;;;;;;;16.70;99.90;;;;;;5074842;28;19904;-74
2022/07/03 11:28:03;;;;;;;;;;;16.90;99.90;;;;;;5074806;28;19912;-74
2022/07/03 11:30:31;;;;;;;;;;;17.00;99.90;;;;;;5074274;28;19908;-74
2022/07/03 11:32:57;;;;;;;;;;;17.20;99.90;;;;;;5074895;28;20321;-74
2022/07/03 11:35:42;;;;;;;;;;;17.30;99.90;;;;;;5074373;28;20415;-74
2022/07/03 11:38:08;;;;;;;;;;;17.40;99.90;;;;;;5074707;28;20334;-75
2022/07/03 11:40:34;;;;;;;;;;;17.40;99.90;;;;;;5074573;28;19911;-74
2022/07/03 11:43:00;;;;;;;;;;;17.50;99.90;;;;;;5074711;28;19950;-74
2022/07/03 11:45:28;;;;;;;;;;;17.70;99.90;;;;;;5074100;28;19952;-74
2022/07/03 11:47:55;;;;;;;;;;;17.80;99.90;;;;;;5074475;28;19905;-74
2022/07/03 11:50:21;;;;;;;;;;;17.90;99.90;;;;;;5072864;28;19917;-74
2022/07/03 11:52:46;;;;;;;;;;;18.00;99.90;;;;;;5074715;28;19912;-74
2022/07/03 11:55:12;;;;;;;;;;;18.10;99.90;;;;;;5056249;28;19910;-75
2022/07/03 11:57:38;;;;;;;;;;;18.20;99.90;;;;;;5074513;28;19915;-74
2022/07/03 12:00:04;;;;;;;;;;;18.20;99.90;;;;;;5074566;28;20377;-74
2022/07/03 12:02:30;;;;;;;;;;;18.10;99.90;;;;;;5074000;28;20738;-75
2022/07/03 12:04:55;;;;;;;;;;;18.10;99.90;;;;;;5074641;28;19912;-74
2022/07/03 12:07:21;;;;;;;;;;;18.10;99.90;;;;;;5073817;28;20016;-74
2022/07/03 12:09:49;;;;;;;;;;;18.10;99.90;;;;;;5074297;28;19908;-74
2022/07/03 12:12:15;;;;;;;;;;;18.10;99.90;;;;;;5073393;28;19920;-74
2022/07/03 12:14:46;;;;;;;;;;;18.30;99.90;;;;;;5074315;28;19905;-74
2022/07/03 12:17:11;;;;;;;;;;;18.40;99.90;;;;;;5073690;28;20351;-74
2022/07/03 12:19:38;;;;;;;;;;;18.50;99.90;;;;;;5073925;28;19919;-74
2022/07/03 12:22:04;;;;;;;;;;;18.40;99.90;;;;;;5074204;28;19904;-74
2022/07/03 12:24:30;;;;;;;;;;;18.50;99.90;;;;;;5073508;28;19931;-74
2022/07/03 12:26:55;;;;;;;;;;;18.60;99.90;;;;;;5073999;28;19904;-74
2022/07/03 12:29:21;;;;;;;;;;;18.70;99.90;;;;;;5073628;28;19912;-74
2022/07/03 12:31:48;;;;;;;;;;;18.70;99.90;;;;;;5055899;28;19912;-74
2022/07/03 12:34:14;;;;;;;;;;;18.70;99.90;;;;;;5073406;28;19915;-74
2022/07/03 12:36:40;;;;;;;;;;;18.80;99.90;;;;;;5073830;28;20342;-74
2022/07/03 12:39:06;;;;;;;;;;;19.00;99.90;;;;;;5073281;28;20015;-74
2022/07/03 12:41:32;;;;;;;;;;;19.20;99.90;;;;;;5073099;28;19964;-74
2022/07/03 12:43:58;;;;;;;;;;;19.30;99.90;;;;;;5073730;28;19904;-74
2022/07/03 12:46:25;;;;;;;;;;;19.30;99.90;;;;;;5073164;28;20335;-74
2022/07/03 12:48:57;;;;;;;;;;;19.10;99.90;;;;;;5055622;28;19930;-74
2022/07/03 12:51:40;;;;;;;;;;;19.20;99.90;;;;;;5072736;28;19908;-74
2022/07/03 12:54:06;;;;;;;;;;;19.10;99.90;;;;;;5073344;28;19943;-74
2022/07/03 12:56:32;;;;;;;;;;;19.10;99.90;;;;;;5072730;28;20070;-74
2022/07/03 13:01:42;;;;;;;;;;;18.90;99.90;;;;;;5072760;28;19968;-74
2022/07/03 13:04:08;;;;;;;;;;;18.80;99.90;;;;;;5072916;28;19957;-74
2022/07/03 13:06:34;;;;;;;;;;;18.70;99.90;;;;;;5072629;28;19958;-74
2022/07/03 13:09:04;;;;;;;;;;;18.60;99.90;;;;;;5072968;28;19954;-74
2022/07/03 13:11:34;;;;;;;;;;;18.50;99.90;;;;;;5072449;28;19959;-74
2022/07/03 13:14:02;;;;;;;;;;;18.40;99.90;;;;;;5072827;28;19912;-74
2022/07/03 13:16:28;;;;;;;;;;;18.30;99.90;;;;;;5072342;28;19995;-74
2022/07/03 13:18:59;;;;;;;;;;;18.30;99.90;;;;;;5072059;28;20424;-74
2022/07/03 13:21:25;;;;;;;;;;;18.40;99.90;;;;;;5071944;28;20263;-74
2022/07/03 13:23:51;;;;;;;;;;;18.40;99.90;;;;;;5072712;28;19911;-74
2022/07/03 13:26:16;;;;;;;;;;;18.60;99.90;;;;;;5072304;28;19909;-75
2022/07/03 13:28:42;;;;;;;;;;;18.80;99.90;;;;;;5073010;28;19975;-74
2022/07/03 13:31:07;;;;;;;;;;;19.00;99.90;;;;;;5072515;28;19915;-74
2022/07/03 13:33:33;;;;;;;;;;;19.30;99.90;;;;;;5054409;28;19908;-74
2022/07/03 13:35:59;;;;;;;;;;;19.50;99.90;;;;;;5072720;28;19919;-74
2022/07/03 13:38:24;;;;;;;;;;;19.60;99.90;;;;;;5071968;28;19920;-74
2022/07/03 13:40:50;;;;;;;;;;;19.70;99.90;;;;;;5054809;28;20277;-74
2022/07/03 13:43:15;;;;;;;;;;;19.70;99.90;;;;;;5072610;28;19904;-75
2022/07/03 13:45:41;;;;;;;;;;;19.70;99.90;;;;;;5072189;28;19904;-74
2022/07/03 13:48:07;;;;;;;;;;;19.60;99.90;;;;;;5072363;28;19908;-74
2022/07/03 13:50:32;;;;;;;;;;;19.50;99.90;;;;;;5071923;28;19908;-75
2022/07/03 13:52:58;;;;;;;;;;;19.50;99.90;;;;;;5072615;28;19908;-74
2022/07/03 13:55:24;;;;;;;;;;;19.40;99.90;;;;;;5072313;28;19958;-74
2022/07/03 13:57:49;;;;;;;;;;;19.40;99.90;;;;;;5073062;28;19952;-74
2022/07/03 14:00:15;;;;;;;;;;;19.30;99.90;;;;;;5072582;28;20216;-74
2022/07/03 14:02:41;;;;;;;;;;;19.40;99.90;;;;;;5072053;28;20342;-74
2022/07/03 14:05:07;;;;;;;;;;;19.50;99.90;;;;;;5072508;28;19909;-74
2022/07/03 14:07:33;;;;;;;;;;;19.50;99.90;;;;;;5072155;28;19905;-74
2022/07/03 14:09:58;;;;;;;;;;;19.70;99.90;;;;;;5072330;28;19940;-74
2022/07/03 14:12:24;;;;;;;;;;;19.90;99.90;;;;;;5073608;28;20316;-75
2022/07/03 14:14:49;;;;;;;;;;;19.90;99.90;;;;;;5076526;28;19912;-74
2022/07/03 14:17:15;;;;;;;;;;;20.00;99.90;;;;;;5076259;28;19911;-74
2022/07/03 14:19:40;;;;;;;;;;;20.00;99.90;;;;;;5076013;28;19911;-74
2022/07/03 14:22:06;;;;;;;;;;;20.10;99.90;;;;;;5076348;28;19955;-74
2022/07/03 14:24:31;;;;;;;;;;;20.00;99.90;;;;;;5076035;28;19908;-74
2022/07/03 14:32:28;;;;;;;;;;;20.10;99.90;;;;;;5075559;28;19931;-75
2022/07/03 14:34:54;;;;;;;;;;;20.30;99.90;;;;;;5076409;28;19908;-74
2022/07/03 14:37:19;;;;;;;;;;;20.30;99.90;;;;;;5076175;28;20350;-74
2022/07/03 14:39:45;;;;;;;;;;;20.20;99.90;;;;;;5075604;28;19916;-75